Aviation Digital Data Service (ADDS)

Output produced by METARs form (1708 UTC 20 January 2019)
found at http://www.aviationweather.gov/metar/data/
 
HKEL 201600Z 18005KT 9999 FEW019CB BKN020 23/12 Q1023
TAF HKEL 201100Z 2012/2112 12010KT 9999 FEW024CB SCT025 
     BECMG 2020/2023 
     BECMG VRB05KT FEW018 BKN080 
     BECMG 2108/2111 12010KT FEW024CB SCT025
       
HKJK 201630Z 05011KT 9999 FEW026 24/12 Q1019 NOSIG
TAF HKJK 201100Z 2012/2118 06013KT 9999 FEW028 
     BECMG 2020/2023 03005KT SCT022 
     BECMG 2108/2111 06013KT FEW028
       
HKKI 201500Z 26014KT 9999 FEW028CB 28/18 Q1014
TAF HKKI 201100Z 2012/2112 22010KT 9999 FEW028CB SCT029 
     BECMG 2020/2023 06005KT FEW019 SCT080 
     BECMG 2108/2111 22010KT FEW028CB SCT029
       
HKML 201600Z 08018KT 9999 SCT023 27/24 Q1009
HKMO 201600Z 06015KT 9999 FEW024 28/23 Q1009 NOSIG
TAF HKMO 201100Z 2012/2118 08015KT 9999 FEW027 
     BECMG 2018/2021 05005KT FEW023 
     BECMG 2100/2106 34005KT FEW020 
     BECMG 2109/2112 08015KT FEW027 
     BECMG 2115/2118 FEW023
       
HKNW 201600Z 05012KT 9999 SCT027 25/09 Q1018
HKWJ 201600Z 00000KT SKC 36/12 Q1006